createdAt,value
2019-02-17T00:03:17.874Z,30.50
2019-02-17T00:07:20.866Z,27.23
2019-02-17T00:11:24.879Z,26.33
2019-02-17T00:15:27.865Z,30.13
2019-02-17T00:19:30.862Z,27.00
2019-02-17T00:23:33.871Z,28.37
2019-02-17T00:27:36.855Z,28.17
2019-02-17T00:31:39.854Z,27.37
2019-02-17T00:35:42.847Z,29.37
2019-02-17T00:39:45.841Z,26.33
2019-02-17T00:43:48.838Z,28.50
2019-02-17T00:47:51.826Z,27.40
2019-02-17T00:51:55.067Z,28.60
2019-02-17T00:55:58.062Z,25.47
2019-02-17T01:00:05.789Z,26.20
2019-02-17T01:04:15.593Z,29.27
2019-02-17T01:08:18.594Z,27.53
2019-02-17T01:12:21.586Z,26.30
2019-02-17T01:16:25.077Z,23.73
2019-02-17T01:20:28.159Z,26.27
2019-02-17T01:24:31.142Z,25.70
2019-02-17T01:28:34.141Z,28.97
2019-02-17T01:32:37.130Z,26.07
2019-02-17T01:36:40.119Z,26.97
2019-02-17T01:40:43.115Z,28.17
2019-02-17T01:44:46.116Z,27.77
2019-02-17T01:48:49.122Z,28.13
2019-02-17T01:52:52.119Z,28.53
2019-02-17T01:56:55.103Z,29.83
2019-02-17T02:00:59.028Z,30.53
2019-02-17T02:05:02.123Z,30.17
2019-02-17T02:09:07.736Z,33.03
2019-02-17T02:13:10.723Z,33.23
2019-02-17T02:17:13.731Z,33.60
2019-02-17T02:21:16.718Z,29.37
2019-02-17T02:25:19.718Z,31.40
2019-02-17T02:29:22.710Z,28.63
2019-02-17T02:33:25.926Z,28.47
2019-02-17T02:37:28.916Z,28.30
2019-02-17T02:41:34.812Z,28.73
2019-02-17T02:45:37.062Z,29.20
2019-02-17T02:49:40.577Z,27.63
2019-02-17T02:53:43.614Z,28.03
2019-02-17T02:57:46.610Z,28.87
2019-02-17T03:01:51.546Z,29.00
2019-02-17T03:05:56.441Z,27.37
2019-02-17T03:09:59.435Z,29.23
2019-02-17T03:14:02.462Z,27.40
2019-02-17T03:18:05.441Z,25.53
2019-02-17T03:22:08.436Z,28.17
2019-02-17T03:26:11.444Z,28.23
2019-02-17T03:30:14.437Z,25.23
2019-02-17T03:34:17.441Z,25.50
2019-02-17T03:38:20.441Z,24.47
2019-02-17T03:42:23.431Z,25.13
2019-02-17T03:46:26.426Z,25.13
2019-02-17T03:50:29.414Z,24.37
2019-02-17T03:54:32.406Z,25.87
2019-02-17T03:58:35.411Z,22.93
2019-02-17T04:02:39.164Z,26.60
2019-02-17T04:06:42.168Z,25.03
2019-02-17T04:10:45.173Z,25.47
2019-02-17T04:14:48.168Z,24.73
2019-02-17T04:18:51.168Z,25.57
2019-02-17T04:22:54.156Z,26.13
2019-02-17T04:26:57.188Z,24.60
2019-02-17T04:31:00.169Z,24.50
2019-02-17T04:35:03.670Z,22.33
2019-02-17T04:39:06.652Z,22.43
2019-02-17T04:43:09.644Z,22.63
2019-02-17T04:47:12.640Z,25.43
2019-02-17T04:51:15.636Z,22.80
2019-02-17T04:55:18.636Z,24.90
2019-02-17T04:59:21.624Z,24.10
2019-02-17T05:03:25.493Z,23.87
2019-02-17T05:07:28.492Z,23.40
2019-02-17T05:11:31.495Z,22.43
2019-02-17T05:15:34.602Z,23.63
2019-02-17T05:19:37.597Z,21.97
2019-02-17T05:23:40.596Z,23.40
2019-02-17T05:27:43.593Z,25.63
2019-02-17T05:31:46.615Z,23.17
2019-02-17T05:35:49.582Z,22.67
2019-02-17T05:39:52.865Z,24.83
2019-02-17T05:43:55.858Z,23.30
2019-02-17T05:51:23.601Z,23.37
2019-02-17T05:55:26.624Z,22.87
2019-02-17T05:59:29.629Z,23.40
2019-02-17T06:03:32.641Z,21.33
2019-02-17T06:07:35.644Z,23.63
2019-02-17T06:11:38.976Z,23.87
2019-02-17T06:15:41.988Z,21.00
2019-02-17T06:19:45.002Z,19.77
2019-02-17T06:23:48.025Z,21.60
2019-02-17T06:27:51.049Z,21.10
2019-02-17T06:31:54.045Z,24.00
2019-02-17T06:35:57.067Z,21.23
2019-02-17T06:40:00.365Z,20.70
2019-02-17T06:44:03.631Z,22.10
2019-02-17T06:48:06.649Z,20.67
2019-02-17T06:52:10.901Z,21.17
2019-02-17T06:56:15.807Z,23.93
2019-02-17T07:00:23.501Z,21.20
2019-02-17T07:04:39.999Z,22.07
2019-02-17T07:08:43.079Z,22.80
2019-02-17T07:12:46.089Z,21.17
2019-02-17T07:16:49.124Z,22.77
2019-02-17T07:20:52.123Z,23.93
2019-02-17T07:24:55.184Z,22.40
2019-02-17T07:28:58.208Z,25.67
2019-02-17T07:33:01.230Z,33.17
2019-02-17T07:37:05.340Z,27.70
2019-02-17T07:41:08.660Z,28.37
2019-02-17T07:45:11.679Z,28.93
2019-02-17T07:49:14.685Z,18.17
2019-02-17T07:53:17.812Z,19.73
2019-02-17T07:57:20.828Z,18.70
2019-02-17T08:01:23.861Z,21.07
2019-02-17T08:05:26.890Z,19.50
2019-02-17T08:09:29.900Z,19.67
2019-02-17T08:13:33.031Z,18.90
2019-02-17T08:17:36.048Z,18.80
2019-02-17T08:21:39.077Z,19.57
2019-02-17T08:25:42.093Z,20.07
2019-02-17T08:29:45.111Z,23.17
2019-02-17T08:33:48.181Z,23.60
2019-02-17T08:37:51.220Z,22.50
2019-02-17T08:41:54.309Z,21.20
2019-02-17T08:45:57.333Z,21.33
2019-02-17T08:50:00.388Z,22.33
2019-02-17T08:54:04.806Z,26.10
2019-02-17T08:58:07.911Z,27.67
2019-02-17T09:02:10.944Z,27.47
2019-02-17T09:06:13.958Z,27.93
2019-02-17T09:10:16.964Z,28.97
2019-02-17T09:14:19.979Z,27.83
2019-02-17T09:18:23.001Z,30.13
2019-02-17T09:22:26.046Z,32.03
2019-02-17T09:26:29.729Z,32.27
2019-02-17T09:30:33.006Z,29.23
2019-02-17T09:34:36.018Z,30.97
2019-02-17T09:38:39.041Z,29.83
2019-02-17T09:42:42.056Z,30.27
2019-02-17T09:46:45.081Z,33.00
2019-02-17T09:50:48.141Z,31.93
2019-02-17T09:54:52.044Z,28.43
2019-02-17T09:58:55.180Z,29.50
2019-02-17T10:02:58.269Z,26.33
2019-02-17T10:07:01.355Z,27.07
2019-02-17T10:11:04.479Z,28.10
2019-02-17T10:15:11.766Z,28.03
2019-02-17T10:19:14.783Z,26.93
2019-02-17T10:23:17.792Z,28.10
2019-02-17T10:27:20.868Z,27.90
2019-02-17T10:31:23.880Z,29.27
2019-02-17T10:35:26.915Z,28.50
2019-02-17T10:39:29.991Z,27.90
2019-02-17T10:43:32.985Z,26.17
2019-02-17T10:47:36.250Z,30.23
2019-02-17T10:51:39.503Z,26.33
2019-02-17T10:55:43.425Z,29.33
2019-02-17T10:59:46.426Z,27.67
2019-02-17T11:04:01.775Z,25.60
2019-02-17T11:08:04.868Z,26.57
2019-02-17T11:12:07.960Z,27.70
2019-02-17T11:16:11.068Z,28.20
2019-02-17T11:20:14.091Z,26.43
2019-02-17T11:24:17.156Z,24.60
2019-02-17T11:28:20.208Z,25.70
2019-02-17T11:32:23.239Z,26.80
2019-02-17T11:36:26.262Z,26.60
2019-02-17T11:40:29.277Z,24.57
2019-02-17T11:44:33.380Z,24.30
2019-02-17T11:48:36.395Z,23.33
2019-02-17T11:52:39.412Z,25.27
2019-02-17T11:56:42.869Z,24.07
2019-02-17T12:00:45.921Z,22.27
2019-02-17T12:04:48.984Z,24.20
2019-02-17T12:08:52.097Z,27.47
2019-02-17T12:12:55.186Z,33.13
2019-02-17T12:16:58.204Z,32.60
2019-02-17T12:21:03.217Z,32.27
2019-02-17T12:25:06.279Z,35.10
2019-02-17T12:29:11.212Z,32.20
2019-02-17T12:33:19.311Z,32.23
2019-02-17T12:37:19.409Z,32.90
2019-02-17T12:41:22.414Z,33.10
2019-02-17T12:45:25.429Z,30.93
2019-02-17T12:49:29.585Z,27.83
2019-02-17T12:53:32.615Z,34.63
2019-02-17T12:57:37.329Z,34.73
2019-02-17T13:01:40.430Z,30.70
2019-02-17T13:05:43.492Z,27.50
2019-02-17T13:09:46.542Z,22.13
2019-02-17T13:13:49.573Z,25.93
2019-02-17T13:17:53.090Z,27.07
2019-02-17T13:21:56.208Z,24.23
2019-02-17T13:25:59.220Z,25.30
2019-02-17T13:30:05.056Z,23.93
2019-02-17T13:34:08.066Z,23.50
2019-02-17T13:38:11.087Z,20.27
2019-02-17T13:42:14.100Z,17.83
2019-02-17T13:46:18.133Z,21.43
2019-02-17T13:50:21.233Z,21.03
2019-02-17T13:54:24.324Z,20.67
2019-02-17T13:58:27.766Z,21.57
2019-02-17T14:02:30.837Z,21.50
2019-02-17T14:06:33.987Z,22.10
2019-02-17T14:10:37.032Z,20.17
2019-02-17T14:14:40.130Z,20.40
2019-02-17T14:18:43.264Z,20.23
2019-02-17T14:22:46.269Z,20.50
2019-02-17T14:26:49.320Z,21.00
2019-02-17T14:30:52.329Z,19.07
2019-02-17T14:34:55.466Z,18.70
2019-02-17T14:38:58.882Z,20.20
2019-02-17T14:43:01.981Z,19.17
2019-02-17T14:47:04.984Z,18.03
2019-02-17T14:51:07.992Z,18.80
2019-02-17T14:55:11.411Z,20.27
2019-02-17T14:59:15.752Z,20.50
2019-02-17T15:03:18.757Z,21.63
2019-02-17T15:07:21.778Z,18.97
2019-02-17T15:11:24.774Z,19.33
2019-02-17T15:15:27.841Z,21.40
2019-02-17T15:19:30.844Z,20.37
2019-02-17T15:23:33.847Z,18.93
2019-02-17T15:27:37.015Z,20.73
2019-02-17T15:31:40.082Z,17.20
2019-02-17T15:35:43.162Z,16.93
2019-02-17T15:39:46.356Z,17.03
2019-02-17T15:43:49.379Z,19.17
2019-02-17T15:47:52.729Z,17.47
2019-02-17T15:51:55.742Z,16.10
2019-02-17T15:55:58.756Z,18.47
2019-02-17T16:00:07.500Z,17.70
2019-02-17T16:04:10.501Z,18.60
2019-02-17T16:08:13.589Z,19.30
2019-02-17T16:12:16.589Z,18.33
2019-02-17T16:16:19.654Z,19.90
2019-02-17T16:20:22.659Z,17.80
2019-02-17T16:24:25.754Z,31.17
2019-02-17T16:28:28.781Z,25.37
2019-02-17T16:32:31.863Z,24.80
2019-02-17T16:36:34.931Z,24.07
2019-02-17T16:40:37.961Z,29.93
2019-02-17T16:44:41.121Z,20.40
2019-02-17T16:48:44.138Z,21.40
2019-02-17T16:52:47.405Z,18.60
2019-02-17T16:56:50.397Z,18.43
2019-02-17T17:00:55.931Z,17.13
2019-02-17T17:04:58.959Z,16.80
2019-02-17T17:09:03.374Z,19.63
2019-02-17T17:13:06.380Z,18.60
2019-02-17T17:17:09.416Z,17.47
2019-02-17T17:21:12.497Z,17.60
2019-02-17T17:25:15.605Z,18.67
2019-02-17T17:29:18.623Z,27.40
2019-02-17T17:33:21.633Z,28.40
2019-02-17T17:37:24.648Z,25.77
2019-02-17T17:41:27.672Z,21.97
2019-02-17T17:45:30.692Z,21.27
2019-02-17T17:49:33.698Z,22.67
2019-02-17T17:53:37.817Z,28.50
2019-02-17T17:57:40.858Z,26.03
2019-02-17T18:01:45.306Z,32.37
2019-02-17T18:05:48.369Z,32.63
2019-02-17T18:09:51.393Z,29.13
2019-02-17T18:13:54.434Z,28.90
2019-02-17T18:17:57.544Z,29.37
2019-02-17T18:22:00.553Z,29.87
2019-02-17T18:26:03.739Z,27.80
2019-02-17T18:30:13.004Z,27.53
2019-02-17T18:34:16.092Z,28.13
2019-02-17T18:38:19.127Z,28.43
2019-02-17T18:42:23.290Z,29.47
2019-02-17T18:46:27.356Z,29.63
2019-02-17T18:50:30.405Z,28.47
2019-02-17T18:54:34.810Z,28.43
2019-02-17T18:58:38.016Z,29.73
2019-02-17T19:02:43.512Z,29.30
2019-02-17T19:06:46.623Z,29.17
2019-02-17T19:10:53.574Z,33.27
2019-02-17T19:14:56.866Z,31.60
2019-02-17T19:19:00.029Z,29.73
2019-02-17T19:23:03.292Z,41.43
2019-02-17T19:27:06.302Z,48.50
2019-02-17T19:31:09.471Z,50.07
2019-02-17T19:35:13.773Z,47.07
2019-02-17T19:39:16.780Z,50.80
2019-02-17T19:43:19.795Z,49.90
2019-02-17T19:47:22.819Z,47.57
2019-02-17T19:51:25.840Z,35.20
2019-02-17T19:55:29.290Z,41.90
2019-02-17T19:59:32.410Z,39.33
2019-02-17T20:03:41.033Z,34.00
2019-02-17T20:07:44.082Z,37.47
2019-02-17T20:11:47.088Z,28.90
2019-02-17T20:15:50.223Z,30.73
2019-02-17T20:19:53.404Z,30.23
2019-02-17T20:23:56.436Z,29.33
2019-02-17T20:27:59.479Z,30.80
2019-02-17T20:32:02.468Z,30.77
2019-02-17T20:36:05.538Z,32.73
2019-02-17T20:40:10.531Z,32.10
2019-02-17T20:44:13.547Z,30.70
2019-02-17T20:48:16.546Z,27.23
2019-02-17T20:52:19.573Z,26.40
2019-02-17T20:56:22.579Z,29.63
2019-02-17T21:00:27.487Z,30.30
2019-02-17T21:04:31.999Z,28.20
2019-02-17T21:08:35.031Z,25.60
2019-02-17T21:12:39.072Z,27.60
2019-02-17T21:16:42.158Z,24.30
2019-02-17T21:20:47.212Z,25.07
2019-02-17T21:24:50.254Z,22.60
2019-02-17T21:28:53.304Z,24.47
2019-02-17T21:32:56.580Z,25.37
2019-02-17T21:36:59.580Z,23.60
2019-02-17T21:41:09.260Z,22.10
2019-02-17T21:45:10.382Z,21.70
2019-02-17T21:49:13.428Z,22.43
2019-02-17T21:53:20.286Z,28.17
2019-02-17T21:57:21.343Z,24.10
2019-02-17T22:01:24.335Z,22.30
2019-02-17T22:05:29.025Z,22.73
2019-02-17T22:09:32.126Z,20.70
2019-02-17T22:13:35.242Z,22.50
2019-02-17T22:17:38.254Z,22.20
2019-02-17T22:21:41.287Z,22.07
2019-02-17T22:25:44.382Z,23.50
2019-02-17T22:29:48.486Z,22.50
2019-02-17T22:33:54.517Z,23.73
2019-02-17T22:37:57.543Z,21.90
2019-02-17T22:42:00.539Z,23.83
2019-02-17T22:46:03.561Z,22.83
2019-02-17T22:50:08.846Z,21.67
2019-02-17T22:54:11.848Z,22.37
2019-02-17T22:58:14.869Z,21.83
2019-02-17T23:02:17.962Z,20.47
2019-02-17T23:06:22.138Z,19.80
2019-02-17T23:10:25.182Z,19.63
2019-02-17T23:14:28.198Z,19.73
2019-02-17T23:18:31.235Z,17.93
2019-02-17T23:22:34.204Z,20.50
2019-02-17T23:26:37.211Z,20.50
2019-02-17T23:30:40.204Z,21.27
2019-02-17T23:34:44.195Z,19.53
2019-02-17T23:38:47.182Z,19.00
2019-02-17T23:42:50.179Z,18.67
2019-02-17T23:46:53.169Z,15.43
2019-02-17T23:50:56.181Z,16.00
2019-02-17T23:54:59.171Z,14.20
2019-02-17T23:59:02.193Z,15.63
